• Join FlightAware (Why Join?)
  • Login
  • US Flag 
06:15PM EDT


 

Airport Tracker/Info


-or-


 

Live Flight TrackerFlight Track Log ✈ SWA1319 ✈ 16-Apr-2013 ✈ KBHM - KDAL

Flight Track Log - Related Links

Times and Time Zones

All times are in EDT time to prevent confusion due to time zone crossing. See the SWA1319 flight status page for this flight to view local times or setup timezone preferences in your user account.

Time Position Orientation Groundspeed Altitude Reporting Facility
EDT Latitude Longitude Course Direction KTS MPH feet Rate Location/Type
01:11PM 33.5489 -86.7806 246° West 179 206 1,400  Level Atlanta Center
01:12PM 33.5289 -86.8347 246° West 222 255 3,600 2,340 Climbing Atlanta Center
01:12PM 33.5367 -86.8550 295° West 233 268 4,300 3,060 Climbing Atlanta Center
01:13PM 33.5514 -86.9403 282° West 258 297 7,600 3,000 Climbing Atlanta Center
01:14PM 33.5806 -87.0236 293° West 270 311 10,400 2,100 Climbing Atlanta Center
01:15PM 33.6117 -87.1244 290° West 296 341 11,900 2,220 Climbing Atlanta Center
01:16PM 33.6003 -87.2436 263° West 334 384 14,900 2,460 Climbing Atlanta Center
01:18PM 33.5850 -87.4297 264° West 362 417 18,300 2,220 Climbing Memphis Center
01:18PM 33.5783 -87.4947 263° West 368 423 19,400 2,160 Climbing Memphis Center
01:19PM 33.5733 -87.5597 265° West 364 419 20,500 1,380 Climbing Memphis Center
01:19PM 33.5661 -87.6100 260° West 415 478 20,800 1,680 Climbing Memphis Center
01:20PM 33.5564 -87.7397 265° West 409 471 22,900 1,740 Climbing Memphis Center
01:21PM 33.5444 -87.8647 263° West 398 458 24,300 1,200 Climbing Memphis Center
01:22PM 33.5306 -88.0022 263° West 404 465 25,300 1,500 Climbing Memphis Center
01:23PM 33.5183 -88.1372 264° West 410 472 27,400 1,800 Climbing Memphis Center
01:24PM 33.5100 -88.2594 265° West 410 472 28,900 1,380 Climbing Memphis Center
01:25PM 33.4956 -88.3919 263° West 410 472 30,200 1,440 Climbing Memphis Center
01:26PM 33.4619 -88.5219 253° West 410 472 31,800 1,500 Climbing Memphis Center
01:27PM 33.4325 -88.6472 254° West 404 465 33,300 1,200 Climbing Memphis Center
01:28PM 33.3986 -88.7697 252° West 399 459 34,300 1,320 Climbing Memphis Center
01:29PM 33.3708 -88.8872 254° West 392 451 36,000 840 Climbing Memphis Center
01:30PM 33.3367 -89.0119 252° West 385 443 36,000  Level Memphis Center
01:31PM 33.3067 -89.1317 253° West 385 443 36,000  Level Memphis Center
01:32PM 33.2767 -89.2539 254° West 385 443 36,000  Level Memphis Center
01:33PM 33.2442 -89.3736 252° West 385 443 36,000  Level Memphis Center
01:34PM 33.2136 -89.4931 253° West 385 443 36,000  Level Memphis Center
01:35PM 33.1831 -89.6125 253° West 385 443 36,000  Level Memphis Center
01:36PM 33.1525 -89.7294 253° West 385 443 36,000  Level Memphis Center
01:37PM 33.1197 -89.8636 254° West 385 443 36,000  Level Memphis Center
01:38PM 33.0867 -89.9853 252° West 385 443 36,000  Level Memphis Center
01:39PM 33.0536 -90.1044 252° West 385 443 36,000  Level Memphis Center
01:40PM 33.0267 -90.2208 255° West 380 437 36,000  Level Memphis Center
01:41PM 33.0039 -90.3425 257° West 380 437 36,000  Level Memphis Center
01:42PM 32.9850 -90.4614 259° West 375 432 36,000  Level Memphis Center
01:43PM 32.9639 -90.5850 259° West 375 432 36,000  Level Memphis Center
01:44PM 32.9408 -90.7064 257° West 375 432 36,000  Level Memphis Center
01:45PM 32.9217 -90.8250 259° West 375 432 36,000  Level Memphis Center
01:46PM 32.9003 -90.9364 257° West 375 432 36,000  Level Memphis Center
01:47PM 32.8767 -91.0572 257° West 375 432 36,000  Level Memphis Center
01:48PM 32.8572 -91.1783 259° West 375 432 36,000  Level Memphis Center
01:50PM 32.8111 -91.4544 259° West 379 436 36,000  Level Fort Worth Center
01:51PM 32.7897 -91.5747 258° West 379 436 36,000  Level Fort Worth Center
01:52PM 32.7658 -91.6922 256° West 379 436 36,000  Level Fort Worth Center
01:53PM 32.7442 -91.8144 258° West 379 436 36,000  Level Fort Worth Center
01:54PM 32.7203 -91.9369 257° West 379 436 36,000  Level Fort Worth Center
01:55PM 32.7006 -92.0567 259° West 379 436 36,000  Level Fort Worth Center
01:56PM 32.6786 -92.1789 258° West 379 436 36,000  Level Fort Worth Center
01:57PM 32.6558 -92.2889 256° West 379 436 36,000  Level Fort Worth Center
01:58PM 32.6356 -92.4058 258° West 379 436 36,000  Level Fort Worth Center
01:59PM 32.6114 -92.5306 257° West 379 436 36,000  Level Fort Worth Center
02:00PM 32.5889 -92.6500 257° West 379 436 36,000  Level Fort Worth Center
02:01PM 32.5583 -92.7822 255° West 379 436 36,000  Level Fort Worth Center
02:02PM 32.5333 -92.9017 256° West 379 436 36,000  Level Fort Worth Center
02:03PM 32.5106 -93.0261 258° West 379 436 36,000  Level Fort Worth Center
02:04PM 32.4875 -93.1431 257° West 379 436 36,000  Level Fort Worth Center
02:05PM 32.4644 -93.2647 257° West 379 436 36,000  Level Fort Worth Center
02:06PM 32.4411 -93.3814 257° West 379 436 36,000  Level Fort Worth Center
02:07PM 32.4194 -93.4906 257° West 379 436 36,000  Level Fort Worth Center
02:08PM 32.4008 -93.6267 261° West 385 443 36,000  Level Fort Worth Center
02:09PM 32.4019 -93.7400 271° West 391 450 36,000  Level Fort Worth Center
02:10PM 32.4061 -93.8800 272° West 391 450 36,000  Level Fort Worth Center
02:11PM 32.4072 -93.9956 271° West 380 437 36,000  Level Fort Worth Center
02:12PM 32.4108 -94.1333 272° West 389 448 36,000  Level Fort Worth Center
02:13PM 32.4117 -94.2489 271° West 389 448 36,000  Level Fort Worth Center
02:14PM 32.4150 -94.3864 272° West 383 441 36,000  Level Fort Worth Center
02:15PM 32.4175 -94.4972 272° West 383 441 36,000  Level Fort Worth Center
02:16PM 32.4186 -94.6350 271° West 383 441 36,000  Level Fort Worth Center
02:17PM 32.4172 -94.7581 269° West 380 437 36,000 -540 Level Fort Worth Center
02:18PM 32.3989 -94.8842 260° West 391 450 35,000 -960 Descending Fort Worth Center
02:19PM 32.3842 -94.9928 261° West 391 450 34,100 -960 Descending Fort Worth Center
02:20PM 32.3658 -95.1186 260° West 386 444 33,100 -1,500 Descending Fort Worth Center
02:21PM 32.3453 -95.2519 260° West 380 437 31,200 1,440 Descending Fort Worth Center
02:22PM 32.3200 -95.3753 256° West 385 443 36,000 -3,000 Climbing Fort Worth Center
02:23PM 32.3014 -95.5086 261° West 398 458 25,300 -6,180 Descending Fort Worth Center
02:24PM 32.2822 -95.6367 260° West 403 464 23,700 -2,400 Descending Fort Worth Center
02:25PM 32.3194 -95.7564 290° West 383 441 20,600 -3,000 Descending Fort Worth Center
02:26PM 32.3667 -95.8689 296° West 378 435 17,700 -3,000 Descending Fort Worth Center
02:27PM 32.4097 -95.9714 296° West 383 441 14,600 -3,000 Descending Fort Worth Center
02:28PM 32.4611 -96.0961 296° West 383 441 11,700 -2,100 Descending Fort Worth Center
02:29PM 32.5017 -96.1892 297° West 368 423 10,500 -960 Descending Fort Worth Center
02:30PM 32.5444 -96.2872 297° West 324 373 9,800 -780 Descending Fort Worth Center
02:31PM 32.5806 -96.3631 299° West 290 334 9,000 -900 Descending Fort Worth Center
02:32PM 32.6314 -96.4514 304° West 291 335 8,100 -960 Descending Fort Worth Center
02:33PM 32.6758 -96.5272 305° West 305 351 7,100 -1,080 Descending Fort Worth Center
02:34PM 32.7472 -96.5933 322° Northwest 292 336 6,000 -1,020 Descending Fort Worth Center
02:35PM 32.8039 -96.6422 324° Northwest 292 336 5,100 -600 Descending Fort Worth Center
02:36PM 32.8500 -96.6833 323° Northwest 244 281 4,900 -600 Descending Dallas / Fort Worth TRACON
02:37PM 32.9000 -96.7333 320° Northwest 219 252 4,000 -540 Descending Dallas / Fort Worth TRACON
02:38PM 32.9500 -96.7833 320° Northwest 216 249 3,900 -420 Descending Dallas / Fort Worth TRACON
02:39PM 32.9833 -96.8333 308° West 208 239 3,200 -660 Descending Dallas / Fort Worth TRACON
02:40PM 32.9833 -96.9000 270° West 191 220 2,600 -660 Descending Dallas / Fort Worth TRACON
02:41PM 32.9333 -96.9333 209° Southwest 180 207 1,900 -480 Descending Dallas / Fort Worth TRACON
02:42PM 32.9000 -96.9167 157° South 172 198 1,700 -540 Descending Dallas / Fort Worth TRACON
02:43PM 32.8667 -96.8833 140° Southeast 137 158 900 -840 Descending Dallas / Fort Worth TRACON
02:45PM 32.8471 -96.8518 146° Southeast  Level Estimated
02:52PM 32.8471 -96.8518 146° Southeast  Level Estimated